createdAt,value
2023-03-27T00:02:47.218Z,36.43
2023-03-27T00:06:46.806Z,36.44
2023-03-27T00:10:46.966Z,36.41
2023-03-27T00:14:47.164Z,36.41
2023-03-27T00:18:47.371Z,36.41
2023-03-27T00:22:47.667Z,36.36
2023-03-27T00:26:47.802Z,36.32
2023-03-27T00:30:48.129Z,36.31
2023-03-27T00:34:48.436Z,36.27
2023-03-27T00:38:48.640Z,36.26
2023-03-27T00:42:48.869Z,36.24
2023-03-27T00:46:49.268Z,36.20
2023-03-27T00:50:49.340Z,36.18
2023-03-27T00:54:49.445Z,36.17
2023-03-27T00:58:49.541Z,36.16
2023-03-27T01:02:49.817Z,36.11
2023-03-27T01:06:49.764Z,36.14
2023-03-27T01:10:49.866Z,36.08
2023-03-27T01:14:49.973Z,36.10
2023-03-27T01:18:50.074Z,36.07
2023-03-27T01:22:50.169Z,36.11
2023-03-27T01:26:50.247Z,36.06
2023-03-27T01:30:50.593Z,36.03
2023-03-27T01:35:01.978Z,36.02
2023-03-27T01:38:51.904Z,35.99
2023-03-27T01:42:51.003Z,36.00
2023-03-27T01:46:51.212Z,35.98
2023-03-27T01:50:51.434Z,35.99
2023-03-27T01:54:52.134Z,35.97
2023-03-27T01:58:52.036Z,35.94
2023-03-27T02:02:52.373Z,35.93
2023-03-27T02:06:52.624Z,35.93
2023-03-27T02:10:52.907Z,35.91
2023-03-27T02:14:53.186Z,35.93
2023-03-27T02:18:53.455Z,35.92
2023-03-27T02:22:53.788Z,35.88
2023-03-27T02:26:53.977Z,35.87
2023-03-27T02:31:05.867Z,35.87
2023-03-27T02:34:55.362Z,35.82
2023-03-27T02:38:54.464Z,35.82
2023-03-27T02:42:54.573Z,35.84
2023-03-27T02:46:54.797Z,35.83
2023-03-27T02:50:55.165Z,35.83
2023-03-27T02:54:55.357Z,35.84
2023-03-27T02:58:55.635Z,35.84
2023-03-27T03:02:56.017Z,35.83
2023-03-27T03:06:56.156Z,35.84
2023-03-27T03:10:56.683Z,35.84
2023-03-27T03:14:56.666Z,35.87
2023-03-27T03:18:56.920Z,35.86
2023-03-27T03:22:57.205Z,35.88
2023-03-27T03:26:57.678Z,35.84
2023-03-27T03:30:57.892Z,35.84
2023-03-27T03:34:58.028Z,35.84
2023-03-27T03:38:58.284Z,35.84
2023-03-27T03:42:58.617Z,35.84
2023-03-27T03:46:58.861Z,35.85
2023-03-27T03:50:59.211Z,35.86
2023-03-27T03:54:59.413Z,35.87
2023-03-27T03:58:59.607Z,35.87
2023-03-27T04:02:59.934Z,35.86
2023-03-27T04:07:00.131Z,35.85
2023-03-27T04:11:00.397Z,35.85
2023-03-27T04:15:00.764Z,35.86
2023-03-27T04:19:00.881Z,35.85
2023-03-27T04:23:01.126Z,35.84
2023-03-27T04:27:01.432Z,35.86
2023-03-27T04:31:01.634Z,35.85
2023-03-27T04:35:01.927Z,35.86
2023-03-27T04:39:02.137Z,35.86
2023-03-27T04:43:02.455Z,35.88
2023-03-27T04:47:02.675Z,35.87
2023-03-27T04:51:02.850Z,35.85
2023-03-27T04:55:04.229Z,35.87
2023-03-27T04:59:03.345Z,35.90
2023-03-27T05:03:03.707Z,35.87
2023-03-27T05:07:03.945Z,35.89
2023-03-27T05:11:04.805Z,35.89
2023-03-27T05:15:04.322Z,35.90
2023-03-27T05:19:04.559Z,35.88
2023-03-27T05:23:04.796Z,35.87
2023-03-27T05:27:05.056Z,36.61
2023-03-27T05:31:05.470Z,36.70
2023-03-27T05:35:05.553Z,36.92
2023-03-27T05:39:05.632Z,37.07
2023-03-27T05:43:05.723Z,37.14
2023-03-27T05:47:05.817Z,37.18
2023-03-27T05:51:05.911Z,37.24
2023-03-27T05:55:06.031Z,37.29
2023-03-27T05:59:06.316Z,37.30
2023-03-27T06:03:06.596Z,37.36
2023-03-27T06:07:06.715Z,37.37
2023-03-27T06:11:06.919Z,37.41
2023-03-27T06:15:07.213Z,37.43
2023-03-27T06:19:07.353Z,37.43
2023-03-27T06:23:07.612Z,37.43
2023-03-27T06:27:10.365Z,37.45
2023-03-27T06:31:08.017Z,37.46
2023-03-27T06:35:07.919Z,37.48
2023-03-27T06:39:07.993Z,37.48
2023-03-27T06:43:08.108Z,37.48
2023-03-27T06:47:08.311Z,37.45
2023-03-27T06:51:08.219Z,37.47
2023-03-27T06:55:08.272Z,37.48
2023-03-27T06:59:09.319Z,37.48
2023-03-27T07:03:08.447Z,37.48
2023-03-27T07:07:08.468Z,37.47
2023-03-27T07:11:12.169Z,37.46
2023-03-27T07:15:08.611Z,37.48
2023-03-27T07:19:08.691Z,37.49
2023-03-27T07:23:08.755Z,37.46
2023-03-27T07:27:08.818Z,37.48
2023-03-27T07:31:20.089Z,37.49
2023-03-27T07:35:09.926Z,37.50
2023-03-27T07:39:08.987Z,37.47
2023-03-27T07:43:09.096Z,37.46
2023-03-27T07:47:09.249Z,37.48
2023-03-27T07:51:13.735Z,37.46
2023-03-27T07:55:09.514Z,37.48
2023-03-27T07:59:09.612Z,37.47
2023-03-27T08:03:09.823Z,37.47
2023-03-27T08:07:09.728Z,37.49
2023-03-27T08:11:23.034Z,37.49
2023-03-27T08:15:10.847Z,37.50
2023-03-27T08:19:09.959Z,38.82
2023-03-27T08:23:10.044Z,40.76
2023-03-27T08:27:10.125Z,43.11
2023-03-27T08:31:10.266Z,44.55
2023-03-27T08:35:10.296Z,45.49
2023-03-27T08:39:10.353Z,46.67
2023-03-27T08:43:10.280Z,47.30
2023-03-27T08:47:10.381Z,48.25
2023-03-27T08:51:10.398Z,49.19
2023-03-27T08:55:10.284Z,49.78
2023-03-27T08:59:10.356Z,50.45
2023-03-27T09:03:10.580Z,50.95
2023-03-27T09:07:10.497Z,53.01
2023-03-27T09:11:10.567Z,52.03
2023-03-27T09:15:10.697Z,52.88
2023-03-27T09:19:11.732Z,52.26
2023-03-27T09:23:10.877Z,42.07
2023-03-27T09:27:11.131Z,46.68
2023-03-27T09:31:11.359Z,47.47
2023-03-27T09:35:11.297Z,48.02
2023-03-27T09:39:11.316Z,48.62
2023-03-27T09:43:11.377Z,49.46
2023-03-27T09:47:11.299Z,44.01
2023-03-27T09:51:11.371Z,47.18
2023-03-27T09:55:11.411Z,47.28
2023-03-27T09:59:11.411Z,47.89
2023-03-27T10:03:11.537Z,48.46
2023-03-27T10:07:11.411Z,49.20
2023-03-27T10:11:11.421Z,50.34
2023-03-27T10:15:11.412Z,49.69
2023-03-27T10:19:11.409Z,49.76
2023-03-27T10:23:11.428Z,49.84
2023-03-27T10:27:12.328Z,49.90
2023-03-27T10:31:11.505Z,49.94
2023-03-27T10:35:11.472Z,49.94
2023-03-27T10:39:11.730Z,49.98
2023-03-27T10:43:12.717Z,49.97
2023-03-27T10:47:12.003Z,49.89
2023-03-27T10:51:12.057Z,49.84
2023-03-27T10:55:12.118Z,49.81
2023-03-27T10:59:12.164Z,49.78
2023-03-27T11:03:12.271Z,49.73
2023-03-27T11:07:13.122Z,49.66
2023-03-27T11:11:13.264Z,49.65
2023-03-27T11:15:12.418Z,49.58
2023-03-27T11:19:12.541Z,49.59
2023-03-27T11:23:12.591Z,49.51
2023-03-27T11:27:14.430Z,49.42
2023-03-27T11:31:13.378Z,49.32
2023-03-27T11:35:12.913Z,49.30
2023-03-27T11:39:13.007Z,49.28
2023-03-27T11:43:13.132Z,49.25
2023-03-27T11:47:13.216Z,49.23
2023-03-27T11:51:13.355Z,49.18
2023-03-27T11:55:13.481Z,49.14
2023-03-27T11:59:13.628Z,49.05
2023-03-27T12:03:13.852Z,49.01
2023-03-27T12:07:15.398Z,49.00
2023-03-27T12:11:13.997Z,48.94
2023-03-27T12:15:14.082Z,48.95
2023-03-27T12:19:27.761Z,48.93
2023-03-27T12:23:15.219Z,48.84
2023-03-27T12:27:14.299Z,48.73
2023-03-27T12:31:14.380Z,48.72
2023-03-27T12:35:14.452Z,48.62
2023-03-27T12:39:15.534Z,48.53
2023-03-27T12:43:14.902Z,48.47
2023-03-27T12:47:14.694Z,48.43
2023-03-27T12:51:14.773Z,48.38
2023-03-27T12:55:14.908Z,48.23
2023-03-27T12:59:15.124Z,48.18
2023-03-27T13:03:15.374Z,48.15
2023-03-27T13:07:16.389Z,48.04
2023-03-27T13:11:15.693Z,47.97
2023-03-27T13:15:15.920Z,47.94
2023-03-27T13:19:16.161Z,47.83
2023-03-27T13:23:16.337Z,47.73
2023-03-27T13:27:16.530Z,47.56
2023-03-27T13:31:16.761Z,47.29
2023-03-27T13:35:16.857Z,47.11
2023-03-27T13:39:16.950Z,46.70
2023-03-27T13:41:06.590Z,47.32
2023-03-27T13:42:06.578Z,47.28
2023-03-27T13:43:06.567Z,47.32
2023-03-27T13:44:06.554Z,47.40
2023-03-27T13:45:06.535Z,47.39
2023-03-27T13:46:06.557Z,47.57
2023-03-27T13:47:08.553Z,47.62
2023-03-27T13:48:06.672Z,47.66
2023-03-27T13:49:06.647Z,47.73
2023-03-27T13:50:06.624Z,47.73
2023-03-27T13:51:06.628Z,47.78
2023-03-27T13:52:06.647Z,47.81
2023-03-27T13:53:06.642Z,47.89
2023-03-27T13:54:06.674Z,47.89
2023-03-27T13:55:06.736Z,47.88
2023-03-27T13:56:06.648Z,47.84
2023-03-27T13:57:06.677Z,47.84
2023-03-27T13:58:06.657Z,47.87
2023-03-27T13:59:07.263Z,47.88
2023-03-27T14:00:06.770Z,47.82
2023-03-27T14:01:06.629Z,47.86
2023-03-27T14:02:06.643Z,47.86
2023-03-27T14:03:06.749Z,47.76
2023-03-27T14:04:06.665Z,47.79
2023-03-27T14:05:06.634Z,47.76
2023-03-27T14:06:06.630Z,47.77
2023-03-27T14:07:06.634Z,47.69
2023-03-27T14:08:06.633Z,47.71
2023-03-27T14:09:06.628Z,47.65
2023-03-27T14:10:06.631Z,47.67
2023-03-27T14:11:07.122Z,47.60
2023-03-27T14:12:06.634Z,47.60
2023-03-27T14:13:06.633Z,47.57
2023-03-27T14:14:06.645Z,47.56
2023-03-27T14:15:07.982Z,47.55
2023-03-27T14:16:06.812Z,47.50
2023-03-27T14:17:06.777Z,47.51
2023-03-27T14:18:06.873Z,47.46
2023-03-27T14:19:06.810Z,47.51
2023-03-27T14:20:06.792Z,47.47
2023-03-27T14:21:06.776Z,47.46
2023-03-27T14:22:07.270Z,47.42
2023-03-27T14:23:06.761Z,47.47
2023-03-27T14:24:06.754Z,47.47
2023-03-27T14:25:06.738Z,47.43
2023-03-27T14:26:06.762Z,47.42
2023-03-27T14:27:06.728Z,47.41
2023-03-27T14:28:06.797Z,47.39
2023-03-27T14:29:06.804Z,47.35
2023-03-27T14:30:06.742Z,47.31
2023-03-27T14:31:06.740Z,47.29
2023-03-27T14:32:06.770Z,47.33
2023-03-27T14:33:06.841Z,47.30
2023-03-27T14:34:06.712Z,47.27
2023-03-27T14:35:06.713Z,47.28
2023-03-27T14:36:06.750Z,47.29
2023-03-27T14:37:06.722Z,47.26
2023-03-27T14:38:06.760Z,47.26
2023-03-27T14:39:06.693Z,47.28
2023-03-27T14:40:06.699Z,47.27
2023-03-27T14:41:06.694Z,47.33
2023-03-27T14:42:06.690Z,47.33
2023-03-27T14:43:06.695Z,47.31
2023-03-27T14:44:07.347Z,47.34
2023-03-27T14:45:06.697Z,47.38
2023-03-27T14:46:06.726Z,47.35
2023-03-27T14:47:06.700Z,47.29
2023-03-27T14:48:06.760Z,47.31
2023-03-27T14:49:06.767Z,47.34
2023-03-27T14:50:06.724Z,47.29
2023-03-27T14:51:06.732Z,47.30
2023-03-27T14:52:06.735Z,47.30
2023-03-27T14:53:06.735Z,47.36
2023-03-27T14:54:06.761Z,47.32
2023-03-27T14:55:06.774Z,47.33
2023-03-27T14:56:06.779Z,47.30
2023-03-27T14:57:07.859Z,47.30
2023-03-27T14:58:07.717Z,47.28
2023-03-27T14:59:06.802Z,47.29
2023-03-27T15:00:06.827Z,47.28
2023-03-27T15:01:06.881Z,47.26
2023-03-27T15:02:06.833Z,47.26
2023-03-27T15:03:06.892Z,47.24
2023-03-27T15:04:07.005Z,47.20
2023-03-27T15:05:06.865Z,47.20
2023-03-27T15:06:06.873Z,47.21
2023-03-27T15:07:09.069Z,47.19
2023-03-27T15:08:06.921Z,47.21
2023-03-27T15:09:06.930Z,47.20
2023-03-27T15:10:06.909Z,47.17
2023-03-27T15:11:06.918Z,47.17
2023-03-27T15:12:06.986Z,47.16
2023-03-27T15:13:06.922Z,47.16
2023-03-27T15:14:06.912Z,47.14
2023-03-27T15:15:06.914Z,47.12
2023-03-27T15:16:06.954Z,47.11
2023-03-27T15:17:07.011Z,47.10
2023-03-27T15:18:06.896Z,47.09
2023-03-27T15:19:06.966Z,47.07
2023-03-27T15:20:06.867Z,47.01
2023-03-27T15:21:06.856Z,46.96
2023-03-27T15:22:07.800Z,46.97
2023-03-27T15:23:06.827Z,46.99
2023-03-27T15:24:06.837Z,46.98
2023-03-27T15:25:06.802Z,46.97
2023-03-27T15:26:06.812Z,46.93
2023-03-27T15:27:06.793Z,46.91
2023-03-27T15:28:08.297Z,46.93
2023-03-27T15:29:06.772Z,46.93
2023-03-27T15:30:06.754Z,46.89
2023-03-27T15:31:06.773Z,46.89
2023-03-27T15:32:06.717Z,46.86
2023-03-27T15:33:06.770Z,46.87
2023-03-27T15:34:06.704Z,46.84
2023-03-27T15:35:06.671Z,46.84
2023-03-27T15:36:06.788Z,46.85
2023-03-27T15:37:06.644Z,46.82
2023-03-27T15:38:06.633Z,46.78
2023-03-27T15:39:06.614Z,46.79
2023-03-27T15:40:06.607Z,46.77
2023-03-27T15:41:06.598Z,46.79
2023-03-27T15:42:06.597Z,46.78
2023-03-27T15:43:06.564Z,46.76
2023-03-27T15:44:06.559Z,46.73
2023-03-27T15:45:06.544Z,46.72
2023-03-27T15:46:06.551Z,46.72
2023-03-27T15:47:06.548Z,46.74
2023-03-27T15:48:06.625Z,46.76
2023-03-27T15:49:06.486Z,46.79
2023-03-27T15:50:06.465Z,46.80
2023-03-27T15:51:06.538Z,46.78
2023-03-27T15:52:06.437Z,46.80
2023-03-27T15:53:06.423Z,46.80
2023-03-27T15:54:06.416Z,46.85
2023-03-27T15:55:06.449Z,46.84
2023-03-27T15:56:06.392Z,46.82
2023-03-27T15:57:09.267Z,46.83
2023-03-27T15:58:06.367Z,46.81
2023-03-27T15:59:06.368Z,46.82
2023-03-27T16:00:06.415Z,46.86
2023-03-27T16:01:18.394Z,46.85
2023-03-27T16:02:07.398Z,46.87
2023-03-27T16:03:06.502Z,46.87
2023-03-27T16:04:06.407Z,46.90
2023-03-27T16:05:06.292Z,46.87
2023-03-27T16:06:06.352Z,46.89
2023-03-27T16:07:06.307Z,46.93
2023-03-27T16:08:06.527Z,46.93
2023-03-27T16:09:06.247Z,46.92
2023-03-27T16:10:06.241Z,46.92
2023-03-27T16:11:06.249Z,46.93
2023-03-27T16:12:06.224Z,46.95
2023-03-27T16:13:06.813Z,46.92
2023-03-27T16:14:06.216Z,46.92
2023-03-27T16:15:08.382Z,46.94
2023-03-27T16:16:06.271Z,46.90
2023-03-27T16:17:06.269Z,46.91
2023-03-27T16:18:06.349Z,46.91
2023-03-27T16:19:06.340Z,46.89
2023-03-27T16:20:06.451Z,46.88
2023-03-27T16:21:06.416Z,46.87
2023-03-27T16:22:06.822Z,46.88
2023-03-27T16:23:06.498Z,46.87
2023-03-27T16:24:06.534Z,46.88
2023-03-27T16:25:06.550Z,46.89
2023-03-27T16:26:06.659Z,46.90
2023-03-27T16:27:06.634Z,46.88
2023-03-27T16:28:06.676Z,46.87
2023-03-27T16:29:06.731Z,46.85
2023-03-27T16:30:06.736Z,46.90
2023-03-27T16:31:06.797Z,46.89
2023-03-27T16:32:06.896Z,46.88
2023-03-27T16:33:06.939Z,46.88
2023-03-27T16:34:06.921Z,46.93
2023-03-27T16:35:06.977Z,46.88
2023-03-27T16:36:07.091Z,46.90
2023-03-27T16:37:07.329Z,46.92
2023-03-27T16:38:07.125Z,46.91
2023-03-27T16:39:07.219Z,46.92
2023-03-27T16:40:07.223Z,46.89
2023-03-27T16:41:07.267Z,46.89
2023-03-27T16:42:07.323Z,46.89
2023-03-27T16:43:07.385Z,46.85
2023-03-27T16:44:08.328Z,46.88
2023-03-27T16:45:07.541Z,46.85
2023-03-27T16:46:07.610Z,46.85
2023-03-27T16:47:07.611Z,46.87
2023-03-27T16:48:07.728Z,46.84
2023-03-27T16:49:07.663Z,46.86
2023-03-27T16:50:11.738Z,46.83
2023-03-27T16:51:07.606Z,46.83
2023-03-27T16:52:07.652Z,46.82
2023-03-27T16:53:07.578Z,46.82
2023-03-27T16:54:07.579Z,46.78
2023-03-27T16:55:07.900Z,46.81
2023-03-27T16:56:07.559Z,46.77
2023-03-27T16:57:08.401Z,46.78
2023-03-27T16:58:07.539Z,46.76
2023-03-27T16:59:08.343Z,46.79
2023-03-27T17:00:07.519Z,46.78
2023-03-27T17:01:07.527Z,46.75
2023-03-27T17:02:07.844Z,46.74
2023-03-27T17:03:07.518Z,46.72
2023-03-27T17:04:07.490Z,46.70
2023-03-27T17:05:07.561Z,46.71
2023-03-27T17:06:07.488Z,46.71
2023-03-27T17:07:07.495Z,46.71
2023-03-27T17:08:07.653Z,46.69
2023-03-27T17:09:07.496Z,46.68
2023-03-27T17:10:08.340Z,46.69
2023-03-27T17:11:07.619Z,46.69
2023-03-27T17:12:07.687Z,46.69
2023-03-27T17:13:07.754Z,46.69
2023-03-27T17:14:07.818Z,46.66
2023-03-27T17:15:07.868Z,46.67
2023-03-27T17:16:07.947Z,46.66
2023-03-27T17:17:08.038Z,46.65
2023-03-27T17:18:08.912Z,46.65
2023-03-27T17:19:08.125Z,46.64
2023-03-27T17:20:08.206Z,46.63
2023-03-27T17:21:08.275Z,46.64
2023-03-27T17:22:08.397Z,46.64
2023-03-27T17:23:08.364Z,46.62
2023-03-27T17:24:09.287Z,46.66
2023-03-27T17:25:08.431Z,46.62
2023-03-27T17:26:11.296Z,46.61
2023-03-27T17:27:08.479Z,46.61
2023-03-27T17:28:08.467Z,46.60
2023-03-27T17:29:08.478Z,46.60
2023-03-27T17:30:08.450Z,46.58
2023-03-27T17:31:08.556Z,46.59
2023-03-27T17:32:08.503Z,46.57
2023-03-27T17:33:08.439Z,46.59
2023-03-27T17:34:08.417Z,46.59
2023-03-27T17:35:08.412Z,46.56
2023-03-27T17:36:08.434Z,46.58
2023-03-27T17:37:08.404Z,46.58
2023-03-27T17:38:08.399Z,46.59
2023-03-27T17:39:08.418Z,46.57
2023-03-27T17:40:08.405Z,46.57
2023-03-27T17:41:08.554Z,46.58
2023-03-27T17:42:08.400Z,46.57
2023-03-27T17:43:08.391Z,46.57
2023-03-27T17:44:08.399Z,46.56
2023-03-27T17:45:08.391Z,46.57
2023-03-27T17:46:08.469Z,46.53
2023-03-27T17:47:09.419Z,46.56
2023-03-27T17:48:08.436Z,46.55
2023-03-27T17:49:08.383Z,46.59
2023-03-27T17:50:08.411Z,46.53
2023-03-27T17:51:09.635Z,46.55
2023-03-27T17:52:08.434Z,46.59
2023-03-27T17:53:08.447Z,46.54
2023-03-27T17:54:08.400Z,46.54
2023-03-27T17:55:08.396Z,46.53
2023-03-27T17:56:08.400Z,46.53
2023-03-27T17:57:08.897Z,46.50
2023-03-27T17:58:09.704Z,46.52
2023-03-27T17:59:08.465Z,46.53
2023-03-27T18:00:08.550Z,46.50
2023-03-27T18:01:08.488Z,46.50
2023-03-27T18:02:08.512Z,46.51
2023-03-27T18:03:08.566Z,46.51
2023-03-27T18:04:08.660Z,46.52
2023-03-27T18:05:08.548Z,46.50
2023-03-27T18:06:08.571Z,46.53
2023-03-27T18:07:08.565Z,46.53
2023-03-27T18:08:08.597Z,46.53
2023-03-27T18:09:08.589Z,46.51
2023-03-27T18:10:08.611Z,46.52
2023-03-27T18:11:08.708Z,46.49
2023-03-27T18:12:08.640Z,46.51
2023-03-27T18:13:08.652Z,46.50
2023-03-27T18:14:08.660Z,46.49
2023-03-27T18:15:08.686Z,46.47
2023-03-27T18:16:08.917Z,46.48
2023-03-27T18:17:08.764Z,46.46
2023-03-27T18:18:08.746Z,46.46
2023-03-27T18:19:08.752Z,46.44
2023-03-27T18:20:08.739Z,46.47
2023-03-27T18:21:08.758Z,46.44
2023-03-27T18:22:08.785Z,46.42
2023-03-27T18:23:08.797Z,46.44
2023-03-27T18:24:08.819Z,46.42
2023-03-27T18:25:08.845Z,46.44
2023-03-27T18:26:08.835Z,46.45
2023-03-27T18:27:08.852Z,46.45
2023-03-27T18:28:08.880Z,46.44
2023-03-27T18:29:08.873Z,46.43
2023-03-27T18:30:08.885Z,46.43
2023-03-27T18:31:08.963Z,46.42
2023-03-27T18:32:08.918Z,46.42
2023-03-27T18:33:08.933Z,46.43
2023-03-27T18:34:08.947Z,46.41
2023-03-27T18:35:08.927Z,46.41
2023-03-27T18:36:08.997Z,46.41
2023-03-27T18:37:08.964Z,46.41
2023-03-27T18:38:08.982Z,46.39
2023-03-27T18:39:08.993Z,46.41
2023-03-27T18:40:08.984Z,46.39
2023-03-27T18:41:08.999Z,46.41
2023-03-27T18:42:09.088Z,46.37
2023-03-27T18:43:09.101Z,46.38
2023-03-27T18:44:09.057Z,46.41
2023-03-27T18:45:09.080Z,46.39
2023-03-27T18:46:09.112Z,46.39
2023-03-27T18:47:09.897Z,46.42
2023-03-27T18:48:09.149Z,46.36
2023-03-27T18:49:21.585Z,46.42
2023-03-27T18:50:10.148Z,46.41
2023-03-27T18:51:09.138Z,46.38
2023-03-27T18:52:09.154Z,46.38
2023-03-27T18:53:09.252Z,46.41
2023-03-27T18:54:09.177Z,46.38
2023-03-27T18:55:09.189Z,46.37
2023-03-27T18:56:09.184Z,46.36
2023-03-27T18:57:09.243Z,46.32
2023-03-27T18:58:09.214Z,46.39
2023-03-27T18:59:09.216Z,46.33
2023-03-27T19:00:09.230Z,46.34
2023-03-27T19:01:09.297Z,46.32
2023-03-27T19:02:09.273Z,46.33
2023-03-27T19:03:09.460Z,46.31
2023-03-27T19:04:09.270Z,46.29
2023-03-27T19:05:09.342Z,46.30
2023-03-27T19:06:09.294Z,46.31
2023-03-27T19:07:09.389Z,46.29
2023-03-27T19:08:09.408Z,46.28
2023-03-27T19:09:09.337Z,46.27
2023-03-27T19:10:09.364Z,46.27
2023-03-27T19:11:09.383Z,46.28
2023-03-27T19:12:09.371Z,46.26
2023-03-27T19:13:09.399Z,46.29
2023-03-27T19:14:09.415Z,46.26
2023-03-27T19:15:19.866Z,46.27
2023-03-27T19:16:14.854Z,46.30
2023-03-27T19:17:10.472Z,46.28
2023-03-27T19:18:09.507Z,46.25
2023-03-27T19:19:09.477Z,46.26
2023-03-27T19:20:09.482Z,46.23
2023-03-27T19:21:09.499Z,46.21
2023-03-27T19:22:09.507Z,46.20
2023-03-27T19:23:09.509Z,46.20
2023-03-27T19:24:09.514Z,46.17
2023-03-27T19:25:09.535Z,46.18
2023-03-27T19:26:09.561Z,46.18
2023-03-27T19:27:24.245Z,46.22
2023-03-27T19:28:10.564Z,46.22
2023-03-27T19:29:09.567Z,46.20
2023-03-27T19:30:09.572Z,46.17
2023-03-27T19:31:09.623Z,46.18
2023-03-27T19:32:09.592Z,46.19
2023-03-27T19:33:09.640Z,46.17
2023-03-27T19:34:09.618Z,46.19
2023-03-27T19:35:09.619Z,46.17
2023-03-27T19:36:09.672Z,46.16
2023-03-27T19:37:09.658Z,46.17
2023-03-27T19:38:09.649Z,46.16
2023-03-27T19:39:09.675Z,46.15
2023-03-27T19:40:09.690Z,46.16
2023-03-27T19:41:09.740Z,46.09
2023-03-27T19:42:09.674Z,46.09
2023-03-27T19:43:09.685Z,46.07
2023-03-27T19:44:09.704Z,46.12
2023-03-27T19:45:09.701Z,46.08
2023-03-27T19:47:10.744Z,46.11
2023-03-27T19:48:09.765Z,46.08
2023-03-27T19:49:09.737Z,46.06
2023-03-27T19:50:09.745Z,46.07
2023-03-27T19:51:09.751Z,46.04
2023-03-27T19:52:09.770Z,46.05
2023-03-27T19:53:09.760Z,46.03
2023-03-27T19:54:09.752Z,46.03
2023-03-27T19:55:09.775Z,46.02
2023-03-27T19:56:09.884Z,46.01
2023-03-27T19:57:09.902Z,46.03
2023-03-27T19:58:09.817Z,46.03
2023-03-27T19:59:13.095Z,46.03
2023-03-27T20:00:10.845Z,46.03
2023-03-27T20:01:09.846Z,45.99
2023-03-27T20:02:09.830Z,45.97
2023-03-27T20:03:09.999Z,45.99
2023-03-27T20:04:09.851Z,45.98
2023-03-27T20:05:09.864Z,45.97
2023-03-27T20:06:13.301Z,45.99
2023-03-27T20:07:09.879Z,45.99
2023-03-27T20:08:09.868Z,45.95
2023-03-27T20:09:10.400Z,45.90
2023-03-27T20:10:09.903Z,45.93
2023-03-27T20:11:09.910Z,45.93
2023-03-27T20:12:09.905Z,45.91
2023-03-27T20:13:09.917Z,45.91
2023-03-27T20:14:09.932Z,45.91
2023-03-27T20:15:12.221Z,45.89
2023-03-27T20:16:09.985Z,45.91
2023-03-27T20:17:21.355Z,45.89
2023-03-27T20:18:11.032Z,45.93
2023-03-27T20:19:09.975Z,45.88
2023-03-27T20:20:10.987Z,45.86
2023-03-27T20:21:09.972Z,45.88
2023-03-27T20:22:09.986Z,45.87
2023-03-27T20:23:10.903Z,45.87
2023-03-27T20:24:10.311Z,45.86
2023-03-27T20:25:10.030Z,45.86
2023-03-27T20:26:10.037Z,45.86
2023-03-27T20:27:10.034Z,45.84
2023-03-27T20:28:10.050Z,45.84
2023-03-27T20:29:10.044Z,45.84
2023-03-27T20:30:10.061Z,45.82
2023-03-27T20:31:10.094Z,45.83
2023-03-27T20:32:10.074Z,45.80
2023-03-27T20:33:10.134Z,45.79
2023-03-27T20:34:10.123Z,45.80
2023-03-27T20:35:20.667Z,45.78
2023-03-27T20:36:11.219Z,45.78
2023-03-27T20:37:10.120Z,45.79
2023-03-27T20:38:10.140Z,45.78
2023-03-27T20:39:10.157Z,45.76
2023-03-27T20:40:10.172Z,45.76
2023-03-27T20:41:10.176Z,45.74
2023-03-27T20:42:10.202Z,45.73
2023-03-27T20:43:10.201Z,45.72
2023-03-27T20:44:10.219Z,45.70
2023-03-27T20:45:10.233Z,45.71
2023-03-27T20:46:10.248Z,45.72
2023-03-27T20:47:10.264Z,45.71
2023-03-27T20:48:10.269Z,45.70
2023-03-27T20:49:10.297Z,45.71
2023-03-27T20:50:10.304Z,45.70
2023-03-27T20:51:10.309Z,45.68
2023-03-27T20:52:10.324Z,45.69
2023-03-27T20:53:10.338Z,45.70
2023-03-27T20:54:10.340Z,45.64
2023-03-27T20:55:11.974Z,45.67
2023-03-27T20:56:10.360Z,45.66
2023-03-27T20:57:10.427Z,45.66
2023-03-27T20:58:10.438Z,45.63
2023-03-27T20:59:10.406Z,45.64
2023-03-27T21:00:10.417Z,45.68
2023-03-27T21:01:10.577Z,45.65
2023-03-27T21:02:10.447Z,45.60
2023-03-27T21:03:10.485Z,45.63
2023-03-27T21:04:10.472Z,45.65
2023-03-27T21:05:10.491Z,45.64
2023-03-27T21:06:10.497Z,45.63
2023-03-27T21:07:10.572Z,45.60
2023-03-27T21:08:10.516Z,45.61
2023-03-27T21:09:10.532Z,45.59
2023-03-27T21:10:10.539Z,45.63
2023-03-27T21:11:10.558Z,45.64
2023-03-27T21:12:10.578Z,45.58
2023-03-27T21:13:10.589Z,45.60
2023-03-27T21:14:10.598Z,45.58
2023-03-27T21:15:10.627Z,45.58
2023-03-27T21:16:10.639Z,45.59
2023-03-27T21:17:10.667Z,45.57
2023-03-27T21:18:10.813Z,45.57
2023-03-27T21:19:10.748Z,45.59
2023-03-27T21:20:10.799Z,45.56
2023-03-27T21:21:10.867Z,45.57
2023-03-27T21:22:10.878Z,45.57
2023-03-27T21:23:10.905Z,45.54
2023-03-27T21:24:10.954Z,45.54
2023-03-27T21:25:10.989Z,45.54
2023-03-27T21:26:11.028Z,45.52
2023-03-27T21:27:11.089Z,45.53
2023-03-27T21:28:11.116Z,45.53
2023-03-27T21:29:11.153Z,45.53
2023-03-27T21:30:11.215Z,45.51
2023-03-27T21:31:11.240Z,45.51
2023-03-27T21:32:11.305Z,45.51
2023-03-27T21:33:11.332Z,45.48
2023-03-27T21:34:11.937Z,45.50
2023-03-27T21:35:11.421Z,45.46
2023-03-27T21:36:11.536Z,45.48
2023-03-27T21:37:11.541Z,45.49
2023-03-27T21:38:12.440Z,45.50
2023-03-27T21:39:11.589Z,45.48
2023-03-27T21:40:11.644Z,45.49
2023-03-27T21:41:11.684Z,45.49
2023-03-27T21:42:11.725Z,45.46
2023-03-27T21:43:11.772Z,45.44
2023-03-27T21:44:11.812Z,45.50
2023-03-27T21:45:11.855Z,45.49
2023-03-27T21:46:12.033Z,45.44
2023-03-27T21:47:11.949Z,45.46
2023-03-27T21:48:12.012Z,45.47
2023-03-27T21:49:12.069Z,45.43
2023-03-27T21:50:12.111Z,45.46
2023-03-27T21:51:12.163Z,45.46
2023-03-27T21:52:12.177Z,45.45
2023-03-27T21:53:12.225Z,45.43
2023-03-27T21:54:12.285Z,45.41
2023-03-27T21:55:13.292Z,45.42
2023-03-27T21:56:12.297Z,45.38
2023-03-27T21:57:12.304Z,45.43
2023-03-27T21:58:12.316Z,45.37
2023-03-27T21:59:12.319Z,45.40
2023-03-27T22:00:12.329Z,45.38
2023-03-27T22:01:12.361Z,45.42
2023-03-27T22:02:12.331Z,45.42
2023-03-27T22:03:12.336Z,45.40
2023-03-27T22:04:12.362Z,45.37
2023-03-27T22:05:13.352Z,45.38
2023-03-27T22:06:13.555Z,45.39
2023-03-27T22:07:12.353Z,45.33
2023-03-27T22:08:12.411Z,45.36
2023-03-27T22:09:12.373Z,45.37
2023-03-27T22:10:12.368Z,45.36
2023-03-27T22:11:12.485Z,45.36
2023-03-27T22:12:12.382Z,45.37
2023-03-27T22:13:12.406Z,45.34
2023-03-27T22:14:12.405Z,45.34
2023-03-27T22:15:12.412Z,45.34
2023-03-27T22:16:12.572Z,45.32
2023-03-27T22:17:12.426Z,45.34
2023-03-27T22:18:13.495Z,45.31
2023-03-27T22:19:12.535Z,45.32
2023-03-27T22:20:12.593Z,45.29
2023-03-27T22:21:12.634Z,45.29
2023-03-27T22:22:12.710Z,45.30
2023-03-27T22:23:12.742Z,45.30
2023-03-27T22:24:12.897Z,45.28
2023-03-27T22:25:12.855Z,45.31
2023-03-27T22:26:12.930Z,45.27
2023-03-27T22:27:12.964Z,45.31
2023-03-27T22:28:13.013Z,45.27
2023-03-27T22:29:13.071Z,45.27
2023-03-27T22:30:13.121Z,45.27
2023-03-27T22:31:13.239Z,45.26
2023-03-27T22:32:14.183Z,45.23
2023-03-27T22:33:13.276Z,45.25
2023-03-27T22:34:13.214Z,45.24
2023-03-27T22:35:13.214Z,45.25
2023-03-27T22:36:13.216Z,45.25
2023-03-27T22:37:13.215Z,45.24
2023-03-27T22:38:13.229Z,45.25
2023-03-27T22:39:13.248Z,45.22
2023-03-27T22:40:13.964Z,45.21
2023-03-27T22:41:13.281Z,45.21
2023-03-27T22:42:13.276Z,45.21
2023-03-27T22:43:22.961Z,45.20
2023-03-27T22:44:14.280Z,45.20
2023-03-27T22:45:13.957Z,45.20
2023-03-27T22:46:13.339Z,45.21
2023-03-27T22:47:13.334Z,45.22
2023-03-27T22:48:13.330Z,45.20
2023-03-27T22:49:13.362Z,45.23
2023-03-27T22:50:13.336Z,45.19
2023-03-27T22:51:13.460Z,45.21
2023-03-27T22:52:13.356Z,45.18
2023-03-27T22:53:13.366Z,45.20
2023-03-27T22:54:13.379Z,45.17
2023-03-27T22:55:13.414Z,45.18
2023-03-27T22:56:13.991Z,45.16
2023-03-27T22:57:13.553Z,45.13
2023-03-27T22:58:13.583Z,45.13
2023-03-27T22:59:13.634Z,45.14
2023-03-27T23:00:13.700Z,45.12
2023-03-27T23:01:13.766Z,45.17
2023-03-27T23:02:13.861Z,45.14
2023-03-27T23:03:13.946Z,45.13
2023-03-27T23:04:14.013Z,45.11
2023-03-27T23:05:13.967Z,45.12
2023-03-27T23:06:14.031Z,45.11
2023-03-27T23:07:14.073Z,45.09
2023-03-27T23:08:14.127Z,45.10
2023-03-27T23:09:14.179Z,45.12